Saturday, January 31, 2015
14:38 UTC
  |  Log In   |  Register Free
Airport Search:

Live Oak County Airport
(8T6)

Live Oak County Airport Diagram
No Airport Diagram Available

FAA data valid effective January 08, 2015 - March 05, 2015 (unless otherwise noted).

 
 
 
 
 
 
 
 
 
 
 
 
 
 

Current Aviation Weather for Live Oak County Airport (8T6)

METAR data is unavailable for 8T6. The nearest METAR location is at KBEA (17.2 nm SE from 8T6).

The most recent METAR observation for KBEA was updated at: 1410
METAR Summary (Translated METAR)
KBEA
311355Z AUTO 07006KT 4SM RA BKN006 OVC020 13/13 A3011 RMK AO2 P0003 T01300130
(17.2 nm SE from 8T6)
KNOG
311356Z AUTO 10SM OVC007 15/14 A3010 RMK AO2 SLP175 T01500144 $
(27.9 nm SE from 8T6)
TAF Summary (Translated TAF)
KALI
(39.3 nm SW from KBEA)
311420Z 3114/0112 09007KT 5SM BR SCT007 BKN035 TEMPO 3114/3116 3SM BR FM311600 12012KT P6SM BKN015 OVC050 FM311900 14017G23KT P6SM BKN025 OVC120 FM010200 13010KT P6SM BKN015 OVC050 TEMPO 0102/0106 4SM -SHRA OVC012 FM010800 15011KT P6SM OVC007
  Airport Weather Conditions for 8T6

Current weather conditions are
not available for 8T6


The nearest NOAA weather station
is at BEA, (17.2 nm SE from 8T6)
  
 Current Weather at BEA
55° F
Rain
East winds at 6.9 mph
BEA NOAA Radar

Pressure: 30.11 in
Humidity: 100%
Wind: East at 6.9 MPH (6 KT)
Dew Point: 55.4°F
Visibility: 4.00 mi


Airport Weather Forecast for 8T6

Translated METAR and TAF for KBEA
Translated METAR for KBEA (1439 UTC 31 January 2015)
found at http://aviationweather.gov/adds/metars/
 
METAR text: KBEA 311435Z AUTO 00000KT 5SM BR OVC007 13/13 A3012 RMK AO2 P0001 T01330133
Conditions at: KBEA (BEEVILLE MUNI , TX, US) observed 1435 UTC 31 January 2015
Temperature: 13.3°C (56°F)
Dewpoint: 13.3°C (56°F) [RH = 100%]
Pressure (altimeter): 30.12 inches Hg (1020.1 mb)
Winds: calm
Visibility: 5 miles (8 km)
Ceiling: 700 feet AGL
Clouds: overcast cloud deck at 700 feet AGL
Weather: BR  (mist)
Translated TAF for KBEA

There is no translated TAF available for this airport

Find All Airport Services Find A Hotel Find A Rental Car Find A Golf Course Find A Restaurant $100 Hamburger



FBO's on the Field
FBO Company Facility Photos Services Transportation Aviation Fuel Prices: Prices include tax
Catering Weather Repair Courtesy Rental Type 100LL JetA JetA+ MOGAS 8087
 
Live Oak Co. Airport

This FBO has not yet been rated
FS:Avfuel
Last Updated: Jan-12
Login to update fuel prices
SS:
Contact Live Oak Co. AirportMore FBO Information
 
Add another FBO Facility Photos Catering Weather Repair Courtesy Rental Type 100LL JetA JetA+ MOGAS 8087
Services Transportation Aviation Fuel Prices: Prices include tax


model-print
model-print
model-print
model-print